createdAt,value
2019-02-02T00:00:58.771Z,96.30
2019-02-02T00:03:25.736Z,96.30
2019-02-02T00:05:52.680Z,96.20
2019-02-02T00:08:19.611Z,96.30
2019-02-02T00:10:46.592Z,96.10
2019-02-02T00:13:13.539Z,96.20
2019-02-02T00:15:40.456Z,96.00
2019-02-02T00:18:07.426Z,96.20
2019-02-02T00:20:34.370Z,96.20
2019-02-02T00:23:01.316Z,96.50
2019-02-02T00:25:28.267Z,96.40
2019-02-02T00:27:55.219Z,96.50
2019-02-02T00:30:22.145Z,96.50
2019-02-02T00:32:49.097Z,96.60
2019-02-02T00:35:16.039Z,96.80
2019-02-02T00:37:43.015Z,96.80
2019-02-02T00:40:09.999Z,96.80
2019-02-02T00:42:36.960Z,96.60
2019-02-02T00:45:05.409Z,96.60
2019-02-02T00:47:36.610Z,96.50
2019-02-02T00:50:03.767Z,96.50
2019-02-02T00:52:30.688Z,96.40
2019-02-02T00:54:57.644Z,96.70
2019-02-02T00:57:24.593Z,96.20
2019-02-02T00:59:51.541Z,95.80
2019-02-02T01:02:18.487Z,95.90
2019-02-02T01:04:45.438Z,95.10
2019-02-02T01:07:12.378Z,95.90
2019-02-02T01:09:39.345Z,95.90
2019-02-02T01:12:06.298Z,95.60
2019-02-02T01:14:33.238Z,95.60
2019-02-02T01:17:00.183Z,95.80
2019-02-02T01:19:27.121Z,95.90
2019-02-02T01:21:54.045Z,96.10
2019-02-02T01:24:20.997Z,96.30
2019-02-02T01:26:47.927Z,96.10
2019-02-02T01:29:14.947Z,96.40
2019-02-02T01:31:41.979Z,96.60
2019-02-02T01:34:08.919Z,97.20
2019-02-02T01:36:35.893Z,97.00
2019-02-02T01:39:04.006Z,96.80
2019-02-02T01:41:30.946Z,96.80
2019-02-02T01:43:57.913Z,96.60
2019-02-02T01:46:24.893Z,96.70
2019-02-02T01:48:52.125Z,96.40
2019-02-02T01:51:19.064Z,96.90
2019-02-02T01:53:46.024Z,96.70
2019-02-02T01:56:12.989Z,97.10
2019-02-02T01:58:39.915Z,96.80
2019-02-02T02:01:06.863Z,97.00
2019-02-02T02:03:33.808Z,96.80
2019-02-02T02:06:00.793Z,96.60
2019-02-02T02:08:27.721Z,96.50
2019-02-02T02:10:54.707Z,96.70
2019-02-02T02:13:21.697Z,96.50
2019-02-02T02:15:48.655Z,96.60
2019-02-02T02:18:15.598Z,96.50
2019-02-02T02:20:42.555Z,96.60
2019-02-02T02:23:09.517Z,96.60
2019-02-02T02:25:36.463Z,96.80
2019-02-02T02:28:03.426Z,96.80
2019-02-02T02:30:30.384Z,96.60
2019-02-02T02:32:57.318Z,96.70
2019-02-02T02:35:24.257Z,97.00
2019-02-02T02:37:51.225Z,96.70
2019-02-02T02:40:20.179Z,96.60
2019-02-02T02:42:47.157Z,96.60
2019-02-02T02:45:14.183Z,96.60
2019-02-02T02:47:41.097Z,96.60
2019-02-02T02:50:11.761Z,96.70
2019-02-02T02:52:38.700Z,96.50
2019-02-02T02:55:06.997Z,96.70
2019-02-02T02:57:33.943Z,96.80
2019-02-02T03:00:00.902Z,96.70
2019-02-02T03:02:27.828Z,97.10
2019-02-02T03:04:54.769Z,97.00
2019-02-02T03:07:21.729Z,96.40
2019-02-02T03:09:48.674Z,96.40
2019-02-02T03:12:15.614Z,96.90
2019-02-02T03:14:42.577Z,96.70
2019-02-02T03:17:09.498Z,96.90
2019-02-02T03:19:36.446Z,96.80
2019-02-02T03:22:03.416Z,96.50
2019-02-02T03:24:30.360Z,96.60
2019-02-02T03:26:57.297Z,96.90
2019-02-02T03:29:24.245Z,96.60
2019-02-02T03:31:51.382Z,96.60
2019-02-02T03:34:18.153Z,96.70
2019-02-02T03:36:45.080Z,96.80
2019-02-02T03:39:12.021Z,97.00
2019-02-02T03:41:38.976Z,96.90
2019-02-02T03:44:05.933Z,96.80
2019-02-02T03:46:32.870Z,96.80
2019-02-02T03:48:59.808Z,96.80
2019-02-02T03:51:27.286Z,96.80
2019-02-02T03:53:54.212Z,96.80
2019-02-02T03:56:21.159Z,96.50
2019-02-02T03:58:48.100Z,96.50
2019-02-02T04:01:15.047Z,96.50
2019-02-02T04:03:41.957Z,96.30
2019-02-02T04:06:08.900Z,96.50
2019-02-02T04:08:35.811Z,96.90
2019-02-02T04:11:02.766Z,97.00
2019-02-02T04:13:29.704Z,96.60
2019-02-02T04:15:56.679Z,96.60
2019-02-02T04:18:23.587Z,96.80
2019-02-02T04:20:50.544Z,96.80
2019-02-02T04:23:17.477Z,97.00
2019-02-02T04:25:44.408Z,96.90
2019-02-02T04:28:11.343Z,97.00
2019-02-02T04:30:38.275Z,96.70
2019-02-02T04:33:05.202Z,96.80
2019-02-02T04:35:32.165Z,96.70
2019-02-02T04:37:59.087Z,96.80
2019-02-02T04:40:26.012Z,96.80
2019-02-02T04:42:52.957Z,96.60
2019-02-02T04:45:19.876Z,96.80
2019-02-02T04:47:46.804Z,96.70
2019-02-02T04:50:14.673Z,96.80
2019-02-02T04:52:43.100Z,96.60
2019-02-02T04:55:11.016Z,96.60
2019-02-02T04:57:37.954Z,96.40
2019-02-02T05:00:07.033Z,96.50
2019-02-02T05:02:33.977Z,96.80
2019-02-02T05:05:00.927Z,96.40
2019-02-02T05:07:27.860Z,96.60
2019-02-02T05:09:54.792Z,96.80
2019-02-02T05:12:21.755Z,97.10
2019-02-02T05:14:48.700Z,97.20
2019-02-02T05:17:15.647Z,96.80
2019-02-02T05:19:42.612Z,96.70
2019-02-02T05:22:09.553Z,97.30
2019-02-02T05:24:36.480Z,96.80
2019-02-02T05:27:03.493Z,96.80
2019-02-02T05:29:40.711Z,96.70
2019-02-02T05:31:57.368Z,97.00
2019-02-02T05:34:24.301Z,97.40
2019-02-02T05:36:51.237Z,97.40
2019-02-02T05:39:18.159Z,97.30
2019-02-02T05:41:45.108Z,97.30
2019-02-02T05:44:12.062Z,97.90
2019-02-02T05:46:38.992Z,97.30
2019-02-02T05:49:05.939Z,97.20
2019-02-02T05:51:32.884Z,96.60
2019-02-02T05:54:00.267Z,96.90
2019-02-02T05:56:27.353Z,96.80
2019-02-02T05:58:54.169Z,96.90
2019-02-02T06:01:21.112Z,97.40
2019-02-02T06:03:48.068Z,97.20
2019-02-02T06:06:14.991Z,96.80
2019-02-02T06:08:41.924Z,96.80
2019-02-02T06:11:08.893Z,97.00
2019-02-02T06:13:35.831Z,97.10
2019-02-02T06:16:02.751Z,96.40
2019-02-02T06:18:29.690Z,97.00
2019-02-02T06:20:56.620Z,96.70
2019-02-02T06:23:23.551Z,96.80
2019-02-02T06:25:50.488Z,96.90
2019-02-02T06:28:17.418Z,96.60
2019-02-02T06:30:44.352Z,96.30
2019-02-02T06:33:11.298Z,96.30
2019-02-02T06:35:38.217Z,96.40
2019-02-02T06:38:05.144Z,96.80
2019-02-02T06:40:32.088Z,96.80
2019-02-02T06:42:59.025Z,96.80
2019-02-02T06:45:29.115Z,96.90
2019-02-02T06:47:56.090Z,97.10
2019-02-02T06:50:23.008Z,97.10
2019-02-02T06:52:49.988Z,96.80
2019-02-02T06:55:19.614Z,96.60
2019-02-02T06:57:46.530Z,96.50
2019-02-02T07:00:16.498Z,96.60
2019-02-02T07:02:43.156Z,96.60
2019-02-02T07:05:09.968Z,96.80
2019-02-02T07:07:36.903Z,97.00
2019-02-02T07:10:04.976Z,96.90
2019-02-02T07:12:31.900Z,97.20
2019-02-02T07:14:58.827Z,97.10
2019-02-02T07:17:25.793Z,96.80
2019-02-02T07:19:52.723Z,96.80
2019-02-02T07:22:19.644Z,96.80
2019-02-02T07:24:46.599Z,97.00
2019-02-02T07:27:13.565Z,96.40
2019-02-02T07:29:40.623Z,97.00
2019-02-02T07:32:07.610Z,96.80
2019-02-02T07:34:34.535Z,96.70
2019-02-02T07:37:01.485Z,96.80
2019-02-02T07:39:28.444Z,96.90
2019-02-02T07:41:55.381Z,97.00
2019-02-02T07:44:22.353Z,97.40
2019-02-02T07:46:49.295Z,97.70
2019-02-02T07:49:16.228Z,97.20
2019-02-02T07:51:43.152Z,97.20
2019-02-02T07:54:10.104Z,97.30
2019-02-02T07:56:37.264Z,97.00
2019-02-02T07:59:04.201Z,96.90
2019-02-02T08:01:31.140Z,96.80
2019-02-02T08:03:58.089Z,99.90
2019-02-02T08:06:25.016Z,93.10
2019-02-02T08:08:52.022Z,92.20
2019-02-02T08:11:18.973Z,92.50
2019-02-02T08:13:45.896Z,93.30
2019-02-02T08:16:12.845Z,93.70
2019-02-02T08:18:39.773Z,94.00
2019-02-02T08:21:06.713Z,94.60
2019-02-02T08:23:33.652Z,94.90
2019-02-02T08:26:00.577Z,95.00
2019-02-02T08:28:27.507Z,95.30
2019-02-02T08:30:54.488Z,95.60
2019-02-02T08:33:21.415Z,95.60
2019-02-02T08:35:48.353Z,96.00
2019-02-02T08:38:15.303Z,96.00
2019-02-02T08:40:42.291Z,95.90
2019-02-02T08:43:09.263Z,95.80
2019-02-02T08:45:36.193Z,95.50
2019-02-02T08:48:03.148Z,95.50
2019-02-02T08:50:33.621Z,95.60
2019-02-02T08:53:00.628Z,95.80
2019-02-02T08:55:27.590Z,95.90
2019-02-02T08:57:54.772Z,95.90
2019-02-02T09:00:21.730Z,96.10
2019-02-02T09:02:49.297Z,95.90
2019-02-02T09:05:17.536Z,95.80
2019-02-02T09:07:44.425Z,96.10
2019-02-02T09:10:14.119Z,96.00
2019-02-02T09:12:41.137Z,96.00
2019-02-02T09:15:09.436Z,95.70
2019-02-02T09:17:36.264Z,95.80
2019-02-02T09:20:04.582Z,95.70
2019-02-02T09:22:31.512Z,95.60
2019-02-02T09:24:58.436Z,95.30
2019-02-02T09:27:25.359Z,94.80
2019-02-02T09:29:52.313Z,94.70
2019-02-02T09:32:19.257Z,94.10
2019-02-02T09:34:46.188Z,93.50
2019-02-02T09:37:13.128Z,93.00
2019-02-02T09:39:40.056Z,92.60
2019-02-02T09:42:06.984Z,90.80
2019-02-02T09:44:33.914Z,86.40
2019-02-02T09:47:00.840Z,81.50
2019-02-02T09:49:27.794Z,78.00
2019-02-02T09:51:54.740Z,72.20
2019-02-02T09:54:26.700Z,69.10
2019-02-02T09:56:48.608Z,66.50
2019-02-02T09:59:17.165Z,63.10
2019-02-02T10:01:44.095Z,60.50
2019-02-02T10:04:11.026Z,56.60
2019-02-02T10:06:38.000Z,57.90
2019-02-02T10:09:07.074Z,55.60
2019-02-02T10:11:34.009Z,56.00
2019-02-02T10:14:00.957Z,55.00
2019-02-02T10:16:27.896Z,56.00
2019-02-02T10:18:54.845Z,57.00
2019-02-02T10:21:21.801Z,56.90
2019-02-02T10:23:48.738Z,57.90
2019-02-02T10:26:15.669Z,57.50
2019-02-02T10:28:42.632Z,58.10
2019-02-02T10:31:09.560Z,58.60
2019-02-02T10:33:36.492Z,57.50
2019-02-02T10:36:03.431Z,56.20
2019-02-02T10:38:30.359Z,54.60
2019-02-02T10:40:57.299Z,53.20
2019-02-02T10:43:24.249Z,51.00
2019-02-02T10:45:51.192Z,48.70
2019-02-02T10:48:18.116Z,48.40
2019-02-02T10:50:45.084Z,47.00
2019-02-02T10:53:12.016Z,45.90
2019-02-02T10:55:38.971Z,44.10
2019-02-02T10:58:06.044Z,43.30
2019-02-02T11:00:34.851Z,44.10
2019-02-02T11:03:01.816Z,47.90
2019-02-02T11:05:28.965Z,52.40
2019-02-02T11:07:55.874Z,57.50
2019-02-02T11:10:24.871Z,60.50
2019-02-02T11:15:19.012Z,67.20
2019-02-02T11:17:45.997Z,67.60
2019-02-02T11:20:17.578Z,70.30
2019-02-02T11:25:09.471Z,74.50
2019-02-02T11:27:36.418Z,75.50
2019-02-02T11:30:05.406Z,74.90
2019-02-02T11:32:32.341Z,77.30
2019-02-02T11:34:59.355Z,76.50
2019-02-02T11:37:26.279Z,77.00
2019-02-02T11:39:53.225Z,78.40
2019-02-02T11:42:20.173Z,79.30
2019-02-02T11:44:47.124Z,79.90
2019-02-02T11:47:14.052Z,82.20
2019-02-02T11:49:41.004Z,81.90
2019-02-02T11:52:07.927Z,81.10
2019-02-02T11:54:34.879Z,81.00
2019-02-02T11:57:01.833Z,81.20
2019-02-02T11:59:28.776Z,82.00
2019-02-02T12:01:56.391Z,80.90
2019-02-02T12:04:23.338Z,82.80
2019-02-02T12:06:50.293Z,82.50
2019-02-02T12:09:17.235Z,82.40
2019-02-02T12:11:44.182Z,82.10
2019-02-02T12:14:11.123Z,82.50
2019-02-02T12:16:38.072Z,83.70
2019-02-02T12:19:05.021Z,84.40
2019-02-02T12:21:31.957Z,84.90
2019-02-02T12:23:58.869Z,83.80
2019-02-02T12:26:25.816Z,82.40
2019-02-02T12:28:52.745Z,80.00
2019-02-02T12:31:19.688Z,79.10
2019-02-02T12:33:46.645Z,79.20
2019-02-02T12:36:13.581Z,79.90
2019-02-02T12:38:40.502Z,80.70
2019-02-02T12:41:07.451Z,83.20
2019-02-02T12:43:34.393Z,83.60
2019-02-02T12:46:01.320Z,84.00
2019-02-02T12:48:28.275Z,85.00
2019-02-02T12:50:55.227Z,84.80
2019-02-02T12:53:22.158Z,85.60
2019-02-02T12:55:49.138Z,85.70
2019-02-02T12:58:16.075Z,85.90
2019-02-02T13:00:44.432Z,86.10
2019-02-02T13:03:10.729Z,86.00
2019-02-02T13:05:39.265Z,86.50
2019-02-02T13:08:05.303Z,87.80
2019-02-02T13:10:31.562Z,87.60
2019-02-02T13:12:58.532Z,88.30
2019-02-02T13:15:25.463Z,88.50
2019-02-02T13:17:52.404Z,89.60
2019-02-02T13:20:19.335Z,89.60
2019-02-02T13:22:46.266Z,89.60
2019-02-02T13:25:15.124Z,88.80
2019-02-02T13:27:42.048Z,88.70
2019-02-02T13:30:13.292Z,87.90
2019-02-02T13:32:49.496Z,88.50
2019-02-02T13:35:09.631Z,88.20
2019-02-02T13:37:36.565Z,86.60
2019-02-02T13:40:04.977Z,83.60
2019-02-02T13:42:31.970Z,83.20
2019-02-02T13:44:58.892Z,82.40
2019-02-02T13:47:25.909Z,82.60
2019-02-02T13:49:52.838Z,81.40
2019-02-02T13:52:19.765Z,82.30
2019-02-02T13:54:46.727Z,83.30
2019-02-02T13:57:14.690Z,82.00
2019-02-02T13:59:41.622Z,82.10
2019-02-02T14:02:08.579Z,82.20
2019-02-02T14:04:37.011Z,82.80
2019-02-02T14:07:03.950Z,82.30
2019-02-02T14:09:30.901Z,83.60
2019-02-02T14:11:57.821Z,83.00
2019-02-02T14:14:24.752Z,83.20
2019-02-02T14:16:51.711Z,81.80
2019-02-02T14:19:18.660Z,81.50
2019-02-02T14:21:45.592Z,81.70
2019-02-02T14:24:12.555Z,82.20
2019-02-02T14:26:39.508Z,82.30
2019-02-02T14:29:06.445Z,82.90
2019-02-02T14:31:33.526Z,83.20
2019-02-02T14:34:00.343Z,83.60
2019-02-02T14:36:27.293Z,83.30
2019-02-02T14:38:54.288Z,82.40
2019-02-02T14:41:21.256Z,83.20
2019-02-02T14:43:48.206Z,84.90
2019-02-02T14:46:15.147Z,85.80
2019-02-02T14:48:42.099Z,84.80
2019-02-02T14:51:09.041Z,83.80
2019-02-02T14:53:36.065Z,84.10
2019-02-02T14:56:02.949Z,85.40
2019-02-02T14:58:29.887Z,85.40
2019-02-02T15:00:56.813Z,85.30
2019-02-02T15:03:25.738Z,85.20
2019-02-02T15:05:51.193Z,85.60
2019-02-02T15:08:18.153Z,85.80
2019-02-02T15:10:45.077Z,86.50
2019-02-02T15:13:12.011Z,87.30
2019-02-02T15:15:38.976Z,88.50
2019-02-02T15:18:05.931Z,88.80
2019-02-02T15:20:34.953Z,88.50
2019-02-02T15:23:01.936Z,87.60
2019-02-02T15:25:28.872Z,88.20
2019-02-02T15:27:55.834Z,88.20
2019-02-02T15:30:24.180Z,87.10
2019-02-02T15:32:51.129Z,87.10
2019-02-02T15:35:18.072Z,87.20
2019-02-02T15:37:45.019Z,87.70
2019-02-02T15:40:13.685Z,88.30
2019-02-02T15:42:40.622Z,88.40
2019-02-02T15:45:09.392Z,88.90
2019-02-02T15:47:36.323Z,89.50
2019-02-02T15:50:04.865Z,90.10
2019-02-02T15:52:31.832Z,90.10
2019-02-02T15:54:58.752Z,90.20
2019-02-02T15:57:25.699Z,90.40
2019-02-02T15:59:52.647Z,90.50
2019-02-02T16:02:19.580Z,90.40
2019-02-02T16:04:46.518Z,90.30
2019-02-02T16:07:16.079Z,90.30
2019-02-02T16:09:43.005Z,90.50
2019-02-02T16:12:09.956Z,90.60
2019-02-02T16:14:36.903Z,90.90
2019-02-02T16:17:03.849Z,91.00
2019-02-02T16:19:30.786Z,91.00
2019-02-02T16:21:57.753Z,91.10
2019-02-02T16:24:24.691Z,91.30
2019-02-02T16:26:51.614Z,91.50
2019-02-02T16:29:18.577Z,92.10
2019-02-02T16:31:45.523Z,92.30
2019-02-02T16:34:12.457Z,92.30
2019-02-02T16:36:39.412Z,92.20
2019-02-02T16:39:07.392Z,92.00
2019-02-02T16:41:34.321Z,92.00
2019-02-02T16:44:01.283Z,92.00
2019-02-02T16:46:28.211Z,92.00
2019-02-02T16:48:55.143Z,91.90
2019-02-02T16:51:22.089Z,92.00
2019-02-02T16:53:49.024Z,91.90
2019-02-02T16:56:15.951Z,91.80
2019-02-02T16:58:42.899Z,91.80
2019-02-02T17:01:09.831Z,91.70
2019-02-02T17:03:36.756Z,91.70
2019-02-02T17:06:03.716Z,92.00
2019-02-02T17:08:31.952Z,91.90
2019-02-02T17:10:58.942Z,91.80
2019-02-02T17:13:25.923Z,92.20
2019-02-02T17:15:52.859Z,92.20
2019-02-02T17:18:19.789Z,92.20
2019-02-02T17:20:46.769Z,92.20
2019-02-02T17:23:13.708Z,92.50
2019-02-02T17:25:40.646Z,92.40
2019-02-02T17:28:07.645Z,92.40
2019-02-02T17:30:34.573Z,92.70
2019-02-02T17:33:03.116Z,93.20
2019-02-02T17:35:30.073Z,93.00
2019-02-02T17:37:57.085Z,93.20
2019-02-02T17:40:25.688Z,93.10
2019-02-02T17:42:52.644Z,93.20
2019-02-02T17:45:19.604Z,93.30
2019-02-02T17:47:46.551Z,93.20
2019-02-02T17:50:15.548Z,93.20
2019-02-02T17:52:42.483Z,93.10
2019-02-02T17:55:09.441Z,93.00
2019-02-02T17:57:36.384Z,92.90
2019-02-02T18:00:04.854Z,92.80
2019-02-02T18:02:31.776Z,93.10
2019-02-02T18:04:58.724Z,93.10
2019-02-02T18:07:25.651Z,92.90
2019-02-02T18:09:53.781Z,92.80
2019-02-02T18:12:20.723Z,92.90
2019-02-02T18:14:47.651Z,92.90
2019-02-02T18:17:14.644Z,93.20
2019-02-02T18:19:41.534Z,92.90
2019-02-02T18:22:08.471Z,93.30
2019-02-02T18:24:35.404Z,92.80
2019-02-02T18:27:02.347Z,92.80
2019-02-02T18:29:29.344Z,92.80
2019-02-02T18:31:56.252Z,92.80
2019-02-02T18:34:23.206Z,92.70
2019-02-02T18:36:50.150Z,93.00
2019-02-02T18:39:17.072Z,93.10
2019-02-02T18:41:44.032Z,92.90
2019-02-02T18:44:10.957Z,92.80
2019-02-02T18:46:37.891Z,93.20
2019-02-02T18:49:04.846Z,93.20
2019-02-02T18:51:31.772Z,93.30
2019-02-02T18:53:58.704Z,93.00
2019-02-02T18:56:25.660Z,93.40
2019-02-02T18:58:52.596Z,93.70
2019-02-02T19:01:19.544Z,93.50
2019-02-02T19:03:46.508Z,93.50
2019-02-02T19:08:46.421Z,93.60
2019-02-02T19:11:13.588Z,93.40
2019-02-02T19:13:40.527Z,93.30
2019-02-02T19:16:07.465Z,93.30
2019-02-02T19:18:34.539Z,93.30
2019-02-02T19:21:01.488Z,93.70
2019-02-02T19:23:28.465Z,93.80
2019-02-02T19:25:55.423Z,93.80
2019-02-02T19:28:22.353Z,94.00
2019-02-02T19:30:49.289Z,94.10
2019-02-02T19:33:16.248Z,94.10
2019-02-02T19:35:43.174Z,93.90
2019-02-02T19:38:10.099Z,93.90
2019-02-02T19:40:37.049Z,94.00
2019-02-02T19:43:04.132Z,93.90
2019-02-02T19:45:31.030Z,94.10
2019-02-02T19:47:57.985Z,94.10
2019-02-02T19:50:25.075Z,94.10
2019-02-02T19:52:52.218Z,94.20
2019-02-02T19:55:19.155Z,94.30
2019-02-02T19:57:46.122Z,94.10
2019-02-02T20:00:16.462Z,94.00
2019-02-02T20:02:43.416Z,93.70
2019-02-02T20:05:10.359Z,94.10
2019-02-02T20:07:37.281Z,94.20
2019-02-02T20:10:05.375Z,94.30
2019-02-02T20:12:33.843Z,94.70
2019-02-02T20:15:00.772Z,94.10
2019-02-02T20:17:27.725Z,94.10
2019-02-02T20:19:54.668Z,94.30
2019-02-02T20:22:21.624Z,94.70
2019-02-02T20:24:48.585Z,94.40
2019-02-02T20:27:15.613Z,94.40
2019-02-02T20:29:42.576Z,94.50
2019-02-02T20:32:09.532Z,94.60
2019-02-02T20:34:36.448Z,94.60
2019-02-02T20:37:03.371Z,94.50
2019-02-02T20:39:30.328Z,94.30
2019-02-02T20:41:59.862Z,94.30
2019-02-02T20:44:24.263Z,94.20
2019-02-02T20:46:51.244Z,94.80
2019-02-02T20:49:18.221Z,94.50
2019-02-02T20:51:45.187Z,94.50
2019-02-02T20:54:12.126Z,94.50
2019-02-02T20:56:39.067Z,94.50
2019-02-02T20:59:06.067Z,94.70
2019-02-02T21:01:33.011Z,94.60
2019-02-02T21:03:59.943Z,94.70
2019-02-02T21:06:26.889Z,94.70
2019-02-02T21:08:53.840Z,94.50
2019-02-02T21:11:20.779Z,94.40
2019-02-02T21:13:49.088Z,94.70
2019-02-02T21:16:16.033Z,94.80
2019-02-02T21:18:42.976Z,94.70
2019-02-02T21:21:09.935Z,94.70
2019-02-02T21:23:36.892Z,94.80
2019-02-02T21:26:03.819Z,94.70
2019-02-02T21:28:31.769Z,94.60
2019-02-02T21:30:58.717Z,94.60
2019-02-02T21:33:25.651Z,94.60
2019-02-02T21:36:03.230Z,94.40
2019-02-02T21:38:19.565Z,94.30
2019-02-02T21:40:46.536Z,94.20
2019-02-02T21:43:13.502Z,94.00
2019-02-02T21:45:40.457Z,94.20
2019-02-02T21:48:07.407Z,94.50
2019-02-02T21:50:34.360Z,94.20
2019-02-02T21:53:01.339Z,94.20
2019-02-02T21:55:28.341Z,94.20
2019-02-02T21:57:55.263Z,94.30
2019-02-02T22:00:25.200Z,94.10
2019-02-02T22:02:52.157Z,94.20
2019-02-02T22:05:19.124Z,94.20
2019-02-02T22:07:47.449Z,94.30
2019-02-02T22:10:13.118Z,94.50
2019-02-02T22:12:40.091Z,94.80
2019-02-02T22:15:11.893Z,94.60
2019-02-02T22:17:38.840Z,94.70
2019-02-02T22:20:07.118Z,94.80
2019-02-02T22:22:34.089Z,94.60
2019-02-02T22:25:01.012Z,94.50
2019-02-02T22:27:27.947Z,94.60
2019-02-02T22:29:54.900Z,94.70
2019-02-02T22:32:21.828Z,95.00
2019-02-02T22:34:48.811Z,94.80
2019-02-02T22:37:15.784Z,94.50
2019-02-02T22:39:42.728Z,94.90
2019-02-02T22:42:09.659Z,94.60
2019-02-02T22:44:36.632Z,94.40
2019-02-02T22:47:03.588Z,94.30
2019-02-02T22:49:30.524Z,94.10
2019-02-02T22:51:59.886Z,94.20
2019-02-02T22:54:24.428Z,94.20
2019-02-02T22:56:51.368Z,94.00
2019-02-02T22:59:18.305Z,94.20
2019-02-02T23:01:49.937Z,94.50
2019-02-02T23:04:48.960Z,94.40
2019-02-02T23:07:37.355Z,94.40
2019-02-02T23:10:21.479Z,94.40
2019-02-02T23:12:57.889Z,94.30
2019-02-02T23:15:39.200Z,94.30
2019-02-02T23:18:06.147Z,94.30
2019-02-02T23:20:33.103Z,94.40
2019-02-02T23:23:00.049Z,94.20
2019-02-02T23:25:26.980Z,94.20
2019-02-02T23:27:53.923Z,94.20
2019-02-02T23:30:20.880Z,94.00
2019-02-02T23:32:47.820Z,94.20
2019-02-02T23:35:14.759Z,94.10
2019-02-02T23:37:41.702Z,94.20
2019-02-02T23:40:09.065Z,92.90
2019-02-02T23:42:35.991Z,94.00
2019-02-02T23:45:03.147Z,94.10
2019-02-02T23:47:30.084Z,94.10
2019-02-02T23:49:57.024Z,93.80
2019-02-02T23:52:23.984Z,93.90
2019-02-02T23:54:50.936Z,94.00
2019-02-02T23:57:17.884Z,94.00
2019-02-02T23:59:44.889Z,93.60
